createdAt,value
2018-03-20T00:01:12.684Z,46.12
2018-03-20T00:03:40.474Z,46.68
2018-03-20T00:06:08.236Z,46.52
2018-03-20T00:08:36.614Z,46.73
2018-03-20T00:11:04.325Z,46.64
2018-03-20T00:13:32.042Z,46.33
2018-03-20T00:15:59.810Z,46.67
2018-03-20T00:18:27.674Z,46.18
2018-03-20T00:20:55.436Z,46.39
2018-03-20T00:23:23.201Z,46.17
2018-03-20T00:25:51.066Z,46.88
2018-03-20T00:28:18.939Z,46.50
2018-03-20T00:30:46.806Z,46.59
2018-03-20T00:33:14.671Z,46.71
2018-03-20T00:35:42.537Z,46.63
2018-03-20T00:38:10.204Z,46.64
2018-03-20T00:40:38.064Z,46.71
2018-03-20T00:43:05.826Z,46.62
2018-03-20T00:45:33.659Z,46.34
2018-03-20T00:48:01.374Z,46.15
2018-03-20T00:50:29.112Z,46.36
2018-03-20T00:52:56.885Z,46.17
2018-03-20T00:55:24.751Z,46.27
2018-03-20T00:57:52.516Z,46.07
2018-03-20T01:00:20.282Z,45.86
2018-03-20T01:02:48.012Z,45.88
2018-03-20T01:05:15.815Z,45.81
2018-03-20T01:07:43.674Z,46.19
2018-03-20T01:10:11.532Z,45.69
2018-03-20T01:12:39.207Z,46.01
2018-03-20T01:15:06.912Z,45.63
2018-03-20T01:17:34.782Z,45.94
2018-03-20T01:20:02.499Z,45.98
2018-03-20T01:22:30.272Z,46.11
2018-03-20T01:24:58.026Z,45.85
2018-03-20T01:27:25.894Z,46.01
2018-03-20T01:29:53.608Z,45.99
2018-03-20T01:32:21.420Z,45.93
2018-03-20T01:34:49.184Z,45.90
2018-03-20T01:37:16.905Z,45.94
2018-03-20T01:39:44.714Z,46.25
2018-03-20T01:42:12.583Z,46.20
2018-03-20T01:44:40.244Z,46.15
2018-03-20T01:47:08.110Z,46.12
2018-03-20T01:49:35.873Z,46.40
2018-03-20T01:52:03.845Z,46.50
2018-03-20T01:54:31.713Z,46.56
2018-03-20T01:56:59.457Z,46.42
2018-03-20T01:59:27.341Z,46.41
2018-03-20T02:01:55.064Z,46.10
2018-03-20T02:04:22.870Z,46.47
2018-03-20T02:06:50.636Z,46.40
2018-03-20T02:09:18.461Z,46.69
2018-03-20T02:11:46.199Z,46.97
2018-03-20T02:14:14.080Z,46.39
2018-03-20T02:16:41.783Z,46.14
2018-03-20T02:19:09.558Z,45.74
2018-03-20T02:21:37.211Z,46.05
2018-03-20T02:24:05.080Z,45.83
2018-03-20T02:26:32.851Z,46.41
2018-03-20T02:29:00.733Z,46.89
2018-03-20T02:31:28.584Z,47.32
2018-03-20T02:33:56.452Z,46.84
2018-03-20T02:36:24.333Z,47.45
2018-03-20T02:38:52.091Z,47.25
2018-03-20T02:41:19.848Z,47.59
2018-03-20T02:43:47.612Z,47.42
2018-03-20T02:46:22.585Z,47.70
2018-03-20T02:48:50.310Z,47.89
2018-03-20T02:51:18.070Z,47.65
2018-03-20T02:53:45.843Z,47.74
2018-03-20T02:56:13.703Z,47.82
2018-03-20T02:58:41.467Z,48.32
2018-03-20T03:01:09.335Z,48.38
2018-03-20T03:03:37.098Z,48.20
2018-03-20T03:06:04.966Z,48.30
2018-03-20T03:08:32.735Z,48.70
2018-03-20T03:11:00.492Z,48.48
2018-03-20T03:13:28.223Z,48.42
2018-03-20T03:15:56.130Z,48.43
2018-03-20T03:18:24.078Z,47.86
2018-03-20T03:20:51.860Z,47.79
2018-03-20T03:23:19.631Z,47.99
2018-03-20T03:25:47.490Z,48.27
2018-03-20T03:28:15.201Z,48.31
2018-03-20T03:30:43.023Z,48.16
2018-03-20T03:33:10.679Z,48.16
2018-03-20T03:35:38.554Z,48.11
2018-03-20T03:38:06.311Z,47.89
2018-03-20T03:40:34.073Z,48.21
2018-03-20T03:43:05.619Z,47.92
2018-03-20T03:45:33.395Z,48.29
2018-03-20T03:48:01.119Z,47.98
2018-03-20T03:50:28.885Z,47.77
2018-03-20T03:52:56.630Z,47.88
2018-03-20T03:55:24.452Z,48.01
2018-03-20T03:57:52.209Z,47.71
2018-03-20T04:00:19.980Z,48.18
2018-03-20T04:02:47.744Z,48.01
2018-03-20T04:05:15.408Z,48.01
2018-03-20T04:07:43.278Z,48.50
2018-03-20T04:10:10.989Z,48.33
2018-03-20T04:12:38.761Z,48.70
2018-03-20T04:15:06.464Z,48.73
2018-03-20T04:17:34.227Z,48.83
2018-03-20T04:20:01.952Z,48.90
2018-03-20T04:22:29.716Z,48.89
2018-03-20T04:24:57.521Z,49.04
2018-03-20T04:27:25.387Z,48.85
2018-03-20T04:29:53.046Z,48.71
2018-03-20T04:32:20.854Z,48.80
2018-03-20T04:34:48.670Z,48.73
2018-03-20T04:37:16.346Z,48.95
2018-03-20T04:39:44.315Z,48.55
2018-03-20T04:42:12.185Z,48.49
2018-03-20T04:44:40.106Z,48.78
2018-03-20T04:47:07.915Z,48.67
2018-03-20T04:49:35.740Z,48.63
2018-03-20T04:52:03.511Z,48.90
2018-03-20T04:54:31.308Z,49.52
2018-03-20T04:56:59.174Z,49.77
2018-03-20T04:59:27.039Z,49.99
2018-03-20T05:01:54.745Z,49.70
2018-03-20T05:04:22.568Z,49.68
2018-03-20T05:06:50.333Z,49.95
2018-03-20T05:09:18.097Z,49.87
2018-03-20T05:11:45.753Z,49.67
2018-03-20T05:14:13.627Z,49.08
2018-03-20T05:16:41.388Z,48.15
2018-03-20T05:22:19.644Z,47.28
2018-03-20T05:24:47.487Z,47.73
2018-03-20T05:27:15.354Z,47.89
2018-03-20T05:29:43.192Z,47.96
2018-03-20T05:32:10.893Z,48.19
2018-03-20T05:34:38.852Z,47.98
2018-03-20T05:37:06.718Z,47.70
2018-03-20T05:39:34.485Z,46.92
2018-03-20T05:42:02.356Z,46.78
2018-03-20T05:44:30.116Z,46.60
2018-03-20T05:50:09.777Z,46.65
2018-03-20T05:52:37.644Z,46.49
2018-03-20T05:55:05.485Z,46.11
2018-03-20T05:57:33.228Z,45.87
2018-03-20T06:00:01.142Z,46.35
2018-03-20T06:02:28.907Z,45.46
2018-03-20T06:04:56.879Z,46.34
2018-03-20T06:07:24.849Z,48.06
2018-03-20T06:09:52.716Z,49.10
2018-03-20T06:12:20.473Z,50.36
2018-03-20T06:14:48.239Z,52.21
2018-03-20T06:17:16.108Z,51.76
2018-03-20T06:19:43.770Z,50.83
2018-03-20T06:22:11.588Z,50.85
2018-03-20T06:24:39.308Z,50.01
2018-03-20T06:27:07.121Z,49.97
2018-03-20T06:29:34.983Z,48.45
2018-03-20T06:32:02.799Z,47.18
2018-03-20T06:34:30.515Z,47.74
2018-03-20T06:36:58.427Z,48.09
2018-03-20T06:39:26.191Z,49.96
2018-03-20T06:41:54.062Z,52.48
2018-03-20T06:44:21.958Z,52.13
2018-03-20T06:46:49.896Z,50.48
2018-03-20T06:49:17.617Z,50.38
2018-03-20T06:51:45.422Z,50.56
2018-03-20T06:54:13.186Z,48.56
2018-03-20T06:56:41.054Z,49.22
2018-03-20T06:59:08.817Z,48.76
2018-03-20T07:01:36.645Z,48.18
2018-03-20T07:04:04.405Z,47.99
2018-03-20T07:06:32.213Z,48.38
2018-03-20T07:08:59.945Z,48.48
2018-03-20T07:11:27.704Z,48.03
2018-03-20T07:13:55.451Z,48.14
2018-03-20T07:16:23.271Z,47.51
2018-03-20T07:18:51.035Z,47.43
2018-03-20T07:21:18.802Z,46.84
2018-03-20T07:23:46.665Z,47.20
2018-03-20T07:26:14.430Z,47.30
2018-03-20T07:28:42.196Z,48.79
2018-03-20T07:31:09.911Z,49.62
2018-03-20T07:33:37.723Z,49.28
2018-03-20T07:36:05.694Z,48.00
2018-03-20T07:38:33.562Z,43.76
2018-03-20T07:41:01.275Z,41.54
2018-03-20T07:43:29.089Z,40.60
2018-03-20T07:45:56.760Z,40.87
2018-03-20T07:48:24.515Z,41.29
2018-03-20T07:50:52.278Z,41.50
2018-03-20T07:53:20.146Z,40.18
2018-03-20T07:55:47.808Z,42.88
2018-03-20T07:58:15.469Z,43.84
2018-03-20T08:00:43.131Z,44.52
2018-03-20T08:03:10.791Z,43.83
2018-03-20T08:05:38.562Z,43.77
2018-03-20T08:08:06.324Z,42.30
2018-03-20T08:10:34.089Z,42.47
2018-03-20T08:13:01.750Z,41.71
2018-03-20T08:15:29.615Z,40.99
2018-03-20T08:17:57.379Z,40.55
2018-03-20T08:20:25.144Z,39.56
2018-03-20T08:22:52.909Z,38.58
2018-03-20T08:25:20.776Z,37.26
2018-03-20T08:27:48.540Z,37.48
2018-03-20T08:30:16.305Z,38.64
2018-03-20T08:32:44.058Z,37.71
2018-03-20T08:35:11.833Z,38.45
2018-03-20T08:37:39.597Z,40.08
2018-03-20T08:40:07.464Z,41.23
2018-03-20T08:42:35.228Z,41.38
2018-03-20T08:45:02.995Z,44.51
2018-03-20T08:47:30.767Z,44.32
2018-03-20T08:49:58.562Z,42.86
2018-03-20T08:52:26.388Z,45.07
2018-03-20T08:54:54.356Z,43.31
2018-03-20T08:57:22.229Z,42.96
2018-03-20T08:59:49.999Z,41.39
2018-03-20T09:02:17.852Z,42.53
2018-03-20T09:04:45.620Z,42.55
2018-03-20T09:07:13.490Z,44.14
2018-03-20T09:09:41.146Z,45.41
2018-03-20T09:12:10.205Z,44.17
2018-03-20T09:14:37.961Z,41.88
2018-03-20T09:17:05.772Z,39.32
2018-03-20T09:19:33.536Z,43.13
2018-03-20T09:22:01.511Z,42.34
2018-03-20T09:24:29.229Z,42.62
2018-03-20T09:26:57.137Z,41.62
2018-03-20T09:29:24.902Z,42.19
2018-03-20T09:31:52.768Z,43.13
2018-03-20T09:34:20.494Z,43.41
2018-03-20T09:36:48.252Z,40.05
2018-03-20T09:39:16.061Z,34.85
2018-03-20T09:41:43.826Z,25.94
2018-03-20T09:44:11.693Z,21.18
2018-03-20T09:46:39.462Z,17.95
2018-03-20T09:49:07.364Z,17.80
2018-03-20T09:51:35.190Z,20.59
2018-03-20T09:54:03.025Z,20.88
2018-03-20T09:56:30.784Z,25.20
2018-03-20T09:58:58.685Z,28.65
2018-03-20T10:01:26.452Z,32.95
2018-03-20T10:03:54.116Z,35.85
2018-03-20T10:06:21.775Z,36.95
2018-03-20T10:08:49.747Z,39.38
2018-03-20T10:11:17.523Z,39.27
2018-03-20T10:13:45.383Z,40.32
2018-03-20T10:16:13.140Z,41.44
2018-03-20T10:18:41.626Z,43.76
2018-03-20T10:21:09.355Z,44.02
2018-03-20T10:23:37.089Z,43.59
2018-03-20T10:26:04.886Z,43.35
2018-03-20T10:28:32.680Z,43.72
2018-03-20T10:31:00.444Z,44.27
2018-03-20T10:33:28.311Z,43.54
2018-03-20T10:35:56.081Z,45.11
2018-03-20T10:38:24.046Z,44.51
2018-03-20T10:40:51.809Z,46.75
2018-03-20T10:43:19.573Z,46.21
2018-03-20T10:45:47.441Z,46.67
2018-03-20T10:48:15.276Z,43.99
2018-03-20T10:50:43.072Z,42.54
2018-03-20T10:53:10.835Z,41.25
2018-03-20T10:55:38.852Z,40.59
2018-03-20T10:58:06.630Z,40.94
2018-03-20T11:03:43.277Z,40.07
2018-03-20T11:06:10.944Z,41.64
2018-03-20T11:08:38.571Z,42.81
2018-03-20T11:11:06.319Z,42.75
2018-03-20T11:13:34.068Z,42.07
2018-03-20T11:16:01.879Z,42.87
2018-03-20T11:18:29.594Z,43.98
2018-03-20T11:20:57.409Z,43.02
2018-03-20T11:23:25.230Z,42.86
2018-03-20T11:25:53.152Z,43.93
2018-03-20T11:28:20.859Z,46.31
2018-03-20T11:30:48.672Z,45.77
2018-03-20T11:33:16.441Z,42.11
2018-03-20T11:35:44.265Z,39.99
2018-03-20T11:38:12.067Z,37.57
2018-03-20T11:40:39.922Z,37.31
2018-03-20T11:43:07.656Z,38.46
2018-03-20T11:45:35.462Z,39.30
2018-03-20T11:48:03.290Z,39.79
2018-03-20T11:50:31.093Z,39.33
2018-03-20T11:52:58.822Z,39.34
2018-03-20T11:55:26.621Z,37.98
2018-03-20T11:57:54.487Z,38.71
2018-03-20T12:00:22.152Z,39.69
2018-03-20T12:02:49.918Z,39.86
2018-03-20T12:05:17.679Z,40.46
2018-03-20T12:07:55.380Z,41.38
2018-03-20T12:10:23.166Z,43.27
2018-03-20T12:12:51.111Z,45.75
2018-03-20T12:15:18.852Z,44.08
2018-03-20T12:17:46.535Z,39.46
2018-03-20T12:20:14.301Z,38.15
2018-03-20T12:22:42.170Z,35.52
2018-03-20T12:25:09.842Z,34.50
2018-03-20T12:27:37.725Z,33.74
2018-03-20T12:30:05.461Z,32.20
2018-03-20T12:32:33.090Z,33.99
2018-03-20T12:35:00.751Z,34.75
2018-03-20T12:37:28.378Z,34.76
2018-03-20T12:39:56.042Z,36.57
2018-03-20T12:42:23.690Z,36.36
2018-03-20T12:44:51.341Z,36.69
2018-03-20T12:47:18.970Z,40.85
2018-03-20T12:49:46.632Z,42.36
2018-03-20T12:52:14.251Z,43.10
2018-03-20T12:54:41.904Z,44.99
2018-03-20T12:57:09.525Z,47.47
2018-03-20T12:59:37.187Z,48.80
2018-03-20T13:02:04.812Z,48.86
2018-03-20T13:04:32.494Z,49.49
2018-03-20T13:07:00.110Z,49.95
2018-03-20T13:09:27.789Z,49.75
2018-03-20T13:11:55.396Z,51.64
2018-03-20T13:14:23.060Z,51.38
2018-03-20T13:16:50.671Z,51.14
2018-03-20T13:19:18.354Z,51.75
2018-03-20T13:21:45.999Z,51.23
2018-03-20T13:24:13.612Z,50.49
2018-03-20T13:26:41.496Z,50.22
2018-03-20T13:29:09.349Z,49.97
2018-03-20T13:31:37.074Z,49.39
2018-03-20T13:34:04.774Z,49.09
2018-03-20T13:36:32.556Z,49.61
2018-03-20T13:39:00.304Z,48.31
2018-03-20T13:41:28.168Z,47.85
2018-03-20T13:43:55.935Z,46.84
2018-03-20T13:46:23.768Z,46.32
2018-03-20T13:48:51.509Z,48.47
2018-03-20T13:51:19.327Z,47.18
2018-03-20T13:53:47.100Z,45.55
2018-03-20T13:56:15.168Z,45.13
2018-03-20T13:58:42.942Z,45.34
2018-03-20T14:01:11.004Z,46.32
2018-03-20T14:03:38.657Z,45.90
2018-03-20T14:06:06.531Z,45.77
2018-03-20T14:08:34.294Z,45.27
2018-03-20T14:11:02.161Z,43.75
2018-03-20T14:13:29.880Z,42.12
2018-03-20T14:15:57.692Z,41.01
2018-03-20T14:18:25.460Z,39.98
2018-03-20T14:20:53.218Z,41.47
2018-03-20T14:23:21.131Z,42.57
2018-03-20T14:25:48.953Z,43.61
2018-03-20T14:28:16.819Z,44.64
2018-03-20T14:30:44.620Z,44.04
2018-03-20T14:33:12.451Z,42.78
2018-03-20T14:35:40.227Z,42.97
2018-03-20T14:38:07.896Z,42.82
2018-03-20T14:40:35.521Z,44.07
2018-03-20T14:43:03.188Z,43.17
2018-03-20T14:45:30.804Z,43.79
2018-03-20T14:47:58.458Z,44.02
2018-03-20T14:50:26.078Z,42.22
2018-03-20T14:52:53.785Z,42.98
2018-03-20T14:55:21.441Z,42.55
2018-03-20T14:57:49.101Z,42.35
2018-03-20T15:00:16.737Z,43.91
2018-03-20T15:02:44.456Z,45.35
2018-03-20T15:05:12.069Z,45.59
2018-03-20T15:07:39.725Z,46.40
2018-03-20T15:10:07.342Z,47.06
2018-03-20T15:12:35.015Z,46.08
2018-03-20T15:15:02.664Z,46.15
2018-03-20T15:17:30.463Z,45.60
2018-03-20T15:19:58.259Z,45.46
2018-03-20T15:22:25.897Z,46.90
2018-03-20T15:24:53.797Z,48.47
2018-03-20T15:27:21.426Z,48.35
2018-03-20T15:29:49.199Z,48.91
2018-03-20T15:32:16.853Z,48.59
2018-03-20T15:34:44.613Z,48.32
2018-03-20T15:37:12.384Z,48.22
2018-03-20T15:39:40.033Z,47.46
2018-03-20T15:42:07.762Z,47.03
2018-03-20T15:44:35.526Z,48.34
2018-03-20T15:47:03.334Z,49.65
2018-03-20T15:49:31.199Z,49.80
2018-03-20T15:51:58.964Z,49.15
2018-03-20T15:54:26.724Z,48.27
2018-03-20T15:56:54.800Z,48.75
2018-03-20T15:59:22.564Z,48.07
2018-03-20T16:01:50.295Z,48.35
2018-03-20T16:04:17.997Z,47.51
2018-03-20T16:06:45.823Z,46.33
2018-03-20T16:09:13.682Z,46.31
2018-03-20T16:11:41.294Z,45.85
2018-03-20T16:14:09.054Z,46.42
2018-03-20T16:16:36.815Z,45.83
2018-03-20T16:19:04.527Z,46.31
2018-03-20T16:21:32.247Z,45.54
2018-03-20T16:24:00.003Z,45.81
2018-03-20T16:26:27.870Z,45.11
2018-03-20T16:28:55.638Z,45.95
2018-03-20T16:31:23.419Z,45.39
2018-03-20T16:33:51.029Z,45.11
2018-03-20T16:36:18.828Z,44.59
2018-03-20T16:38:46.536Z,44.17
2018-03-20T16:41:14.298Z,44.99
2018-03-20T16:43:42.119Z,45.57
2018-03-20T16:46:09.985Z,46.72
2018-03-20T16:48:37.853Z,47.38
2018-03-20T16:51:05.720Z,50.68
2018-03-20T16:53:33.473Z,51.62
2018-03-20T16:56:01.172Z,52.22
2018-03-20T16:58:28.910Z,52.38
2018-03-20T17:00:56.781Z,52.40
2018-03-20T17:03:24.446Z,52.79
2018-03-20T17:05:52.084Z,51.85
2018-03-20T17:08:19.777Z,51.97
2018-03-20T17:10:47.385Z,51.75
2018-03-20T17:13:15.061Z,52.77
2018-03-20T17:15:42.800Z,52.81
2018-03-20T17:18:10.619Z,52.66
2018-03-20T17:20:38.345Z,52.96
2018-03-20T17:23:06.252Z,55.61
2018-03-20T17:25:34.012Z,55.17
2018-03-20T17:28:01.853Z,54.53
2018-03-20T17:30:29.719Z,54.23
2018-03-20T17:32:57.562Z,54.03
2018-03-20T17:35:25.376Z,53.89
2018-03-20T17:37:53.202Z,54.68
2018-03-20T17:40:20.962Z,54.39
2018-03-20T17:42:48.781Z,54.73
2018-03-20T17:45:16.541Z,54.66
2018-03-20T17:47:44.405Z,54.45
2018-03-20T17:50:12.176Z,54.57
2018-03-20T17:52:40.036Z,54.73
2018-03-20T17:55:07.758Z,54.74
2018-03-20T17:57:35.569Z,55.10
2018-03-20T18:00:03.485Z,55.07
2018-03-20T18:02:32.222Z,55.11
2018-03-20T18:05:00.289Z,54.51
2018-03-20T18:07:28.013Z,53.91
2018-03-20T18:09:55.818Z,52.63
2018-03-20T18:12:23.691Z,51.63
2018-03-20T18:14:51.449Z,51.05
2018-03-20T18:17:19.178Z,50.00
2018-03-20T18:19:46.979Z,48.91
2018-03-20T18:22:14.744Z,48.17
2018-03-20T18:24:42.404Z,47.24
2018-03-20T18:27:10.176Z,46.81
2018-03-20T18:29:38.029Z,46.11
2018-03-20T18:32:05.697Z,46.18
2018-03-20T18:34:33.473Z,46.21
2018-03-20T18:37:01.186Z,46.01
2018-03-20T18:39:29.171Z,45.97
2018-03-20T18:41:56.966Z,45.79
2018-03-20T18:44:24.827Z,45.67
2018-03-20T18:46:52.762Z,45.62
2018-03-20T18:49:20.568Z,45.20
2018-03-20T18:51:48.431Z,45.20
2018-03-20T18:54:16.295Z,44.87
2018-03-20T18:56:44.162Z,45.21
2018-03-20T18:59:11.884Z,45.59
2018-03-20T19:01:39.643Z,45.89
2018-03-20T19:04:07.463Z,46.28
2018-03-20T19:06:35.320Z,46.72
2018-03-20T19:09:03.085Z,46.54
2018-03-20T19:11:30.849Z,46.31
2018-03-20T19:13:58.618Z,46.20
2018-03-20T19:16:26.479Z,46.33
2018-03-20T19:18:54.176Z,46.43
2018-03-20T19:21:21.947Z,46.07
2018-03-20T19:23:49.775Z,46.08
2018-03-20T19:26:17.646Z,46.36
2018-03-20T19:28:45.507Z,46.23
2018-03-20T19:31:13.273Z,46.07
2018-03-20T19:33:41.137Z,45.81
2018-03-20T19:36:08.808Z,45.85
2018-03-20T19:38:36.609Z,45.71
2018-03-20T19:41:04.390Z,45.51
2018-03-20T19:43:33.366Z,45.64
2018-03-20T19:46:01.088Z,45.33
2018-03-20T19:48:28.899Z,45.08
2018-03-20T19:50:56.717Z,44.84
2018-03-20T19:53:24.528Z,44.62
2018-03-20T19:55:52.351Z,44.53
2018-03-20T19:58:20.163Z,44.55
2018-03-20T20:00:47.980Z,44.87
2018-03-20T20:03:15.751Z,44.18
2018-03-20T20:05:43.461Z,44.08
2018-03-20T20:08:11.274Z,43.55
2018-03-20T20:10:38.936Z,43.04
2018-03-20T20:13:06.700Z,42.77
2018-03-20T20:15:34.566Z,42.72
2018-03-20T20:18:02.229Z,42.72
2018-03-20T20:20:29.993Z,42.17
2018-03-20T20:22:57.726Z,42.31
2018-03-20T20:25:25.466Z,42.16
2018-03-20T20:27:53.183Z,41.90
2018-03-20T20:30:20.848Z,41.91
2018-03-20T20:32:48.611Z,41.92
2018-03-20T20:35:16.467Z,41.69
2018-03-20T20:37:44.241Z,41.78
2018-03-20T20:40:12.005Z,41.96
2018-03-20T20:42:39.668Z,42.02
2018-03-20T20:45:07.541Z,41.49
2018-03-20T20:47:35.321Z,41.45
2018-03-20T20:50:03.125Z,41.31
2018-03-20T20:52:30.929Z,41.43
2018-03-20T20:54:58.585Z,41.57
2018-03-20T20:57:26.300Z,41.59
2018-03-20T20:59:54.120Z,41.89
2018-03-20T21:02:21.955Z,41.93
2018-03-20T21:04:49.754Z,41.83
2018-03-20T21:07:17.620Z,42.08
2018-03-20T21:09:45.384Z,42.02
2018-03-20T21:12:13.250Z,41.56
2018-03-20T21:14:41.021Z,41.76
2018-03-20T21:17:08.779Z,41.60
2018-03-20T21:19:36.542Z,41.63
2018-03-20T21:22:04.307Z,41.38
2018-03-20T21:24:32.025Z,41.59
2018-03-20T21:26:59.836Z,41.67
2018-03-20T21:29:27.558Z,41.91
2018-03-20T21:31:55.262Z,41.82
2018-03-20T21:34:22.924Z,41.88
2018-03-20T21:36:50.686Z,42.24
2018-03-20T21:39:18.346Z,42.13
2018-03-20T21:41:46.217Z,42.50
2018-03-20T21:44:13.878Z,42.51
2018-03-20T21:46:41.620Z,42.25
2018-03-20T21:49:09.408Z,42.52
2018-03-20T21:51:37.070Z,42.77
2018-03-20T21:54:05.395Z,43.03
2018-03-20T21:56:33.213Z,42.93
2018-03-20T21:59:00.879Z,43.10
2018-03-20T22:01:28.639Z,43.19
2018-03-20T22:03:56.301Z,43.31
2018-03-20T22:06:24.024Z,43.34
2018-03-20T22:08:51.830Z,43.29
2018-03-20T22:11:19.609Z,43.58
2018-03-20T22:13:48.656Z,43.25
2018-03-20T22:16:16.566Z,43.79
2018-03-20T22:18:44.538Z,43.61
2018-03-20T22:21:12.294Z,44.05
2018-03-20T22:23:40.059Z,44.51
2018-03-20T22:26:07.878Z,44.66
2018-03-20T22:28:35.583Z,44.41
2018-03-20T22:31:03.316Z,44.43
2018-03-20T22:33:31.112Z,44.43
2018-03-20T22:35:58.882Z,44.58
2018-03-20T22:38:26.641Z,44.56
2018-03-20T22:40:54.406Z,45.10
2018-03-20T22:43:22.341Z,45.22
2018-03-20T22:45:50.089Z,45.12
2018-03-20T22:48:17.801Z,45.28
2018-03-20T22:50:45.566Z,45.38
2018-03-20T22:53:13.228Z,45.77
2018-03-20T22:55:41.095Z,45.34
2018-03-20T22:58:08.756Z,45.42
2018-03-20T23:00:36.418Z,45.25
2018-03-20T23:03:04.184Z,45.34
2018-03-20T23:05:32.051Z,45.23
2018-03-20T23:07:59.813Z,45.21
2018-03-20T23:10:27.544Z,45.24
2018-03-20T23:12:55.343Z,45.56
2018-03-20T23:15:23.210Z,45.52
2018-03-20T23:17:50.974Z,45.74
2018-03-20T23:20:18.739Z,46.70
2018-03-20T23:22:46.502Z,46.39
2018-03-20T23:25:14.192Z,46.01
2018-03-20T23:27:42.025Z,45.79
2018-03-20T23:30:09.797Z,45.33
2018-03-20T23:32:37.610Z,45.78
2018-03-20T23:35:05.355Z,45.42
2018-03-20T23:37:33.195Z,45.08
2018-03-20T23:40:00.962Z,45.99
2018-03-20T23:42:28.825Z,45.70
2018-03-20T23:44:56.695Z,45.88
2018-03-20T23:47:24.455Z,45.63
2018-03-20T23:49:52.221Z,45.67
2018-03-20T23:52:20.042Z,46.00
2018-03-20T23:54:47.850Z,46.35
2018-03-20T23:57:15.617Z,45.70
2018-03-20T23:59:43.378Z,45.68
